createdAt,value
2018-01-11T18:24:25.400Z,7.80
2018-01-11T18:26:57.264Z,7.50
2018-01-11T18:27:56.242Z,7.20
2018-01-11T18:28:56.289Z,7.80
2018-01-11T18:29:56.281Z,7.40
2018-01-11T18:30:57.221Z,7.30
2018-01-11T18:31:56.203Z,7.30
2018-01-11T18:32:56.173Z,7.50
2018-01-11T18:33:56.696Z,7.30
2018-01-11T18:34:56.211Z,8.00
2018-01-11T18:35:56.138Z,7.70
2018-01-11T18:36:56.143Z,7.50
2018-01-11T18:37:56.086Z,7.40
2018-01-11T18:38:56.056Z,7.60
2018-01-11T18:39:56.067Z,7.20
2018-01-11T18:40:56.088Z,7.80
2018-01-11T18:41:56.012Z,7.70
2018-01-11T18:42:56.699Z,7.70
2018-01-11T18:43:56.042Z,8.10
2018-01-11T18:44:55.980Z,7.50
2018-01-11T18:45:55.981Z,7.80
2018-01-11T18:46:55.962Z,7.70
2018-01-11T18:47:55.898Z,7.50
2018-01-11T18:48:55.895Z,7.60
2018-01-11T18:49:56.616Z,7.70
2018-01-11T18:50:56.240Z,8.00
2018-01-11T18:51:55.906Z,7.50
2018-01-11T18:52:55.881Z,7.20
2018-01-11T18:53:55.856Z,7.40
2018-01-11T18:54:56.736Z,7.50
2018-01-11T18:55:58.732Z,7.80
2018-01-11T18:56:55.803Z,7.40
2018-01-11T18:57:55.804Z,7.70
2018-01-11T18:58:55.795Z,7.50
2018-01-11T18:59:55.763Z,8.20
2018-01-11T19:00:55.753Z,8.10
2018-01-11T19:01:55.673Z,8.00
2018-01-11T19:02:55.736Z,7.70
2018-01-11T19:03:55.656Z,7.70
2018-01-11T19:04:56.162Z,7.80
2018-01-11T19:05:55.703Z,7.20
2018-01-11T19:06:55.646Z,7.80
2018-01-11T19:07:55.626Z,7.60
2018-01-11T19:08:55.572Z,8.00
2018-01-11T19:09:55.618Z,7.60
2018-01-11T19:10:55.659Z,7.60
2018-01-11T19:11:55.596Z,7.70
2018-01-11T19:12:55.544Z,7.40
2018-01-11T19:13:55.537Z,7.70
2018-01-11T19:14:58.170Z,7.70
2018-01-11T19:15:55.514Z,7.70
2018-01-11T19:16:55.480Z,7.50
2018-01-11T19:17:56.174Z,7.60
2018-01-11T19:18:55.449Z,7.70
2018-01-11T19:19:55.412Z,7.70
2018-01-11T19:20:55.483Z,7.40
2018-01-11T19:21:55.389Z,7.50
2018-01-11T19:22:56.171Z,7.60
2018-01-11T19:23:56.179Z,7.60
2018-01-11T19:24:55.437Z,7.60
2018-01-11T19:25:56.134Z,7.90
2018-01-11T19:26:55.312Z,7.70
2018-01-11T19:27:55.296Z,7.50
2018-01-11T19:28:55.302Z,7.90
2018-01-11T19:29:58.273Z,7.60
2018-01-11T19:30:55.237Z,7.20
2018-01-11T19:31:55.264Z,7.60
2018-01-11T19:32:55.226Z,7.80
2018-01-11T19:33:55.236Z,7.60
2018-01-11T19:34:55.183Z,7.80
2018-01-11T19:35:55.171Z,7.80
2018-01-11T19:36:55.142Z,7.50
2018-01-11T19:37:55.114Z,7.40
2018-01-11T19:38:55.089Z,7.40
2018-01-11T19:39:55.157Z,7.70
2018-01-11T19:40:55.074Z,7.70
2018-01-11T19:41:55.058Z,7.50
2018-01-11T19:42:55.074Z,7.60
2018-01-11T19:43:55.131Z,7.30
2018-01-11T19:44:55.044Z,7.50
2018-01-11T19:45:55.057Z,7.40
2018-01-11T19:46:55.001Z,7.50
2018-01-11T19:47:54.973Z,7.80
2018-01-11T19:48:54.985Z,7.80
2018-01-11T19:49:54.961Z,7.80
2018-01-11T19:50:54.952Z,7.60
2018-01-11T19:51:54.927Z,6.90
2018-01-11T19:52:55.643Z,7.20
2018-01-11T19:53:54.919Z,7.70
2018-01-11T19:55:02.697Z,7.20
2018-01-11T19:55:55.694Z,7.60
2018-01-11T19:56:54.820Z,7.80
2018-01-11T19:58:02.136Z,7.10
2018-01-11T19:58:55.713Z,7.40
2018-01-11T19:59:54.779Z,7.50
2018-01-11T20:00:55.722Z,7.50
2018-01-11T20:01:54.759Z,7.70
2018-01-11T20:02:54.721Z,7.50
2018-01-11T20:04:02.758Z,7.40
2018-01-11T20:04:55.258Z,7.30
2018-01-11T20:05:55.250Z,7.20
2018-01-11T20:06:54.700Z,7.40
2018-01-11T20:07:54.649Z,7.50
2018-01-11T20:08:55.253Z,7.30
2018-01-11T20:09:54.626Z,7.40
2018-01-11T20:10:54.597Z,7.00
2018-01-11T20:11:54.619Z,7.30
2018-01-11T20:12:54.579Z,7.40
2018-01-11T20:13:54.578Z,7.30
2018-01-11T20:14:54.540Z,7.30
2018-01-11T20:15:54.544Z,7.10
2018-01-11T20:16:54.544Z,7.10
2018-01-11T20:17:54.513Z,7.20
2018-01-11T20:18:54.503Z,7.10
2018-01-11T20:19:54.674Z,7.10
2018-01-11T20:20:54.567Z,7.40
2018-01-11T20:21:55.278Z,7.20
2018-01-11T20:22:54.426Z,7.30
2018-01-11T20:23:54.408Z,7.40
2018-01-11T20:24:54.423Z,7.30
2018-01-11T20:25:54.383Z,7.30
2018-01-11T20:26:54.371Z,7.50
2018-01-11T20:27:54.367Z,7.30
2018-01-11T20:28:54.339Z,7.50
2018-01-11T20:29:54.339Z,7.30
2018-01-11T20:30:54.308Z,7.50
2018-01-11T20:31:54.324Z,7.70
2018-01-11T20:32:54.296Z,7.20
2018-01-11T20:33:54.282Z,7.40
2018-01-11T20:34:55.456Z,7.10
2018-01-11T20:35:54.250Z,7.30
2018-01-11T20:36:54.214Z,7.00
2018-01-11T20:37:54.251Z,7.40
2018-01-11T20:38:54.184Z,7.50
2018-01-11T20:39:54.187Z,7.30
2018-01-11T20:40:54.181Z,7.10
2018-01-11T20:41:54.154Z,7.40
2018-01-11T20:42:54.169Z,7.20
2018-01-11T20:43:54.151Z,7.20
2018-01-11T20:44:54.120Z,7.70
2018-01-11T20:45:54.766Z,7.40
2018-01-11T20:46:54.090Z,7.60
2018-01-11T20:47:54.085Z,7.50
2018-01-11T20:48:54.132Z,7.40
2018-01-11T20:49:54.065Z,7.20
2018-01-11T20:50:54.008Z,7.50
2018-01-11T20:51:53.999Z,7.50
2018-01-11T20:52:54.002Z,7.50
2018-01-11T20:53:53.990Z,7.40
2018-01-11T20:54:53.971Z,7.60
2018-01-11T20:55:53.939Z,7.40
2018-01-11T20:56:53.943Z,7.10
2018-01-11T20:57:53.906Z,7.40
2018-01-11T20:58:53.936Z,7.40
2018-01-11T20:59:53.874Z,7.50
2018-01-11T21:00:53.861Z,7.40
2018-01-11T21:01:53.857Z,7.10
2018-01-11T21:02:53.851Z,6.80
2018-01-11T21:03:53.837Z,7.20
2018-01-11T21:04:53.824Z,7.50
2018-01-11T21:05:54.772Z,7.20
2018-01-11T21:06:53.788Z,7.20
2018-01-11T21:07:53.754Z,7.60
2018-01-11T21:08:53.736Z,7.80
2018-01-11T21:09:53.745Z,7.00
2018-01-11T21:10:53.710Z,7.70
2018-01-11T21:11:53.697Z,7.10
2018-01-11T21:12:53.680Z,7.20
2018-01-11T21:13:53.658Z,7.10
2018-01-11T21:14:53.678Z,7.10
2018-01-11T21:15:53.641Z,6.80
2018-01-11T21:16:53.618Z,7.60
2018-01-11T21:17:53.630Z,7.30
2018-01-11T21:18:53.618Z,7.10
2018-01-11T21:19:53.592Z,7.20
2018-01-11T21:20:53.585Z,7.30
2018-01-11T21:21:54.285Z,7.30
2018-01-11T21:22:53.526Z,7.70
2018-01-11T21:23:53.544Z,7.00
2018-01-11T21:24:54.261Z,7.40
2018-01-11T21:25:53.524Z,7.40
2018-01-11T21:26:53.486Z,7.30
2018-01-11T21:27:54.251Z,7.20
2018-01-11T21:28:53.445Z,7.00
2018-01-11T21:29:53.420Z,7.30
2018-01-11T21:30:53.428Z,7.00
2018-01-11T21:31:53.442Z,7.60
2018-01-11T21:32:53.391Z,7.10
2018-01-11T21:33:53.377Z,6.60
2018-01-11T21:34:53.377Z,7.20
2018-01-11T21:35:53.331Z,7.40
2018-01-11T21:36:53.364Z,7.00
2018-01-11T21:37:53.291Z,7.10
2018-01-11T21:38:56.285Z,7.40
2018-01-11T21:39:53.265Z,7.10
2018-01-11T21:40:53.265Z,7.10
2018-01-11T21:41:53.267Z,7.50
2018-01-11T21:42:53.241Z,7.10
2018-01-11T21:43:53.206Z,7.10
2018-01-11T21:44:53.202Z,7.10
2018-01-11T21:45:53.189Z,6.90
2018-01-11T21:46:53.191Z,7.20
2018-01-11T21:47:53.149Z,7.30
2018-01-11T21:48:53.123Z,7.60
2018-01-11T21:49:53.148Z,7.00
2018-01-11T21:50:53.105Z,7.20
2018-01-11T21:51:53.116Z,7.10
2018-01-11T21:52:53.066Z,7.10
2018-01-11T21:53:53.080Z,7.00
2018-01-11T21:54:53.479Z,7.40
2018-01-11T21:55:53.286Z,7.10
2018-01-11T21:56:53.067Z,6.90
2018-01-11T21:57:53.521Z,6.90
2018-01-11T21:58:53.204Z,7.20
2018-01-11T21:59:52.958Z,7.20
2018-01-11T22:00:52.945Z,7.00
2018-01-11T22:01:52.932Z,7.10
2018-01-11T22:02:52.928Z,7.20
2018-01-11T22:03:52.906Z,7.30
2018-01-11T22:04:52.883Z,7.30
2018-01-11T22:05:52.882Z,7.00
2018-01-11T22:06:52.849Z,7.20
2018-01-11T22:07:52.863Z,7.00
2018-01-11T22:08:52.877Z,7.00
2018-01-11T22:09:52.813Z,7.10
2018-01-11T22:10:52.839Z,6.90
2018-01-11T22:11:52.831Z,7.20
2018-01-11T22:12:52.886Z,7.00
2018-01-11T22:13:52.789Z,7.10
2018-01-11T22:14:52.955Z,6.70
2018-01-11T22:15:52.728Z,7.40
2018-01-11T22:16:52.741Z,6.90
2018-01-11T22:17:52.725Z,6.50
2018-01-11T22:18:52.770Z,6.50
2018-01-11T22:19:52.669Z,6.70
2018-01-11T22:20:52.664Z,7.30
2018-01-11T22:21:52.636Z,7.20
2018-01-11T22:22:52.620Z,6.70
2018-01-11T22:23:52.602Z,7.20
2018-01-11T22:24:52.571Z,7.10
2018-01-11T22:25:52.551Z,7.00
2018-01-11T22:26:52.540Z,6.90
2018-01-11T22:27:52.531Z,7.10
2018-01-11T22:28:52.532Z,6.90
2018-01-11T22:29:52.495Z,7.00
2018-01-11T22:30:52.476Z,7.00
2018-01-11T22:31:52.464Z,6.80
2018-01-11T22:32:52.458Z,6.90
2018-01-11T22:33:52.465Z,6.70
2018-01-11T22:34:52.415Z,6.80
2018-01-11T22:35:52.446Z,7.00
2018-01-11T22:36:52.383Z,6.40
2018-01-11T22:37:52.369Z,6.90
2018-01-11T22:38:52.388Z,7.20
2018-01-11T22:39:52.463Z,7.10
2018-01-11T22:40:52.323Z,7.20
2018-01-11T22:41:52.315Z,6.80
2018-01-11T22:42:52.319Z,7.50
2018-01-11T22:43:52.320Z,6.90
2018-01-11T22:44:52.267Z,6.70
2018-01-11T22:45:52.252Z,7.30
2018-01-11T22:46:52.258Z,6.90
2018-01-11T22:47:52.224Z,6.60
2018-01-11T22:48:52.241Z,7.10
2018-01-11T22:49:52.188Z,7.10
2018-01-11T22:50:52.203Z,6.70
2018-01-11T22:51:52.168Z,6.80
2018-01-11T22:52:52.176Z,6.90
2018-01-11T22:53:52.154Z,6.70
2018-01-11T22:54:52.108Z,7.30
2018-01-11T22:55:52.096Z,7.20
2018-01-11T22:56:52.084Z,6.80
2018-01-11T22:57:52.093Z,6.80
2018-01-11T22:58:52.089Z,7.20
2018-01-11T22:59:52.139Z,6.70
2018-01-11T23:00:52.019Z,7.00
2018-01-11T23:01:52.010Z,6.60
2018-01-11T23:02:51.991Z,6.80
2018-01-11T23:03:51.992Z,6.60
2018-01-11T23:04:51.988Z,6.50
2018-01-11T23:05:51.960Z,6.80
2018-01-11T23:06:51.955Z,6.90
2018-01-11T23:07:51.913Z,6.90
2018-01-11T23:08:51.897Z,6.80
2018-01-11T23:09:51.908Z,6.40
2018-01-11T23:10:51.865Z,6.70
2018-01-11T23:11:51.851Z,7.20
2018-01-11T23:12:51.860Z,6.70
2018-01-11T23:13:51.816Z,6.70
2018-01-11T23:14:51.822Z,6.80
2018-01-11T23:15:51.790Z,6.80
2018-01-11T23:16:51.769Z,6.70
2018-01-11T23:17:51.764Z,6.90
2018-01-11T23:18:51.761Z,6.90
2018-01-11T23:19:51.759Z,6.80
2018-01-11T23:20:51.727Z,6.90
2018-01-11T23:21:51.742Z,7.10
2018-01-11T23:22:51.695Z,6.70
2018-01-11T23:23:51.664Z,7.20
2018-01-11T23:24:51.650Z,7.00
2018-01-11T23:25:51.657Z,7.10
2018-01-11T23:26:51.618Z,6.90
2018-01-11T23:27:51.602Z,7.40
2018-01-11T23:28:51.597Z,6.70
2018-01-11T23:29:51.580Z,6.90
2018-01-11T23:30:51.599Z,6.90
2018-01-11T23:31:51.553Z,7.50
2018-01-11T23:32:51.554Z,6.90
2018-01-11T23:33:51.513Z,6.90
2018-01-11T23:34:51.493Z,7.10
2018-01-11T23:35:51.503Z,7.20
2018-01-11T23:36:51.490Z,6.80
2018-01-11T23:37:51.447Z,7.20
2018-01-11T23:38:51.440Z,7.10
2018-01-11T23:39:51.417Z,7.30
2018-01-11T23:40:51.432Z,6.70
2018-01-11T23:41:51.406Z,6.90
2018-01-11T23:42:51.382Z,7.00
2018-01-11T23:43:51.364Z,7.10
2018-01-11T23:44:51.345Z,7.10
2018-01-11T23:45:51.324Z,7.10
2018-01-11T23:46:51.326Z,7.00
2018-01-11T23:47:51.294Z,7.00
2018-01-11T23:48:51.287Z,7.30
2018-01-11T23:49:51.270Z,7.00
2018-01-11T23:50:51.268Z,7.00
2018-01-11T23:51:51.265Z,6.70
2018-01-11T23:52:51.240Z,7.40
2018-01-11T23:53:51.197Z,6.90
2018-01-11T23:54:51.181Z,6.90
2018-01-11T23:55:51.171Z,6.70
2018-01-11T23:56:51.175Z,7.10
2018-01-11T23:57:51.148Z,7.00
2018-01-11T23:58:51.132Z,7.20
2018-01-11T23:59:51.123Z,6.70
